sensor_id;sensor_type;location;lat;lon;timestamp;temperature;humidity
65637;DHT22;52327;42.622;23.316;2024-03-23T00:54:35;5.26;56.74
65637;DHT22;52327;42.622;23.316;2024-03-23T00:57:01;5.28;55.75
65637;DHT22;52327;42.622;23.316;2024-03-23T00:59:27;5.28;56.36
65637;DHT22;52327;42.622;23.316;2024-03-23T01:01:54;5.23;55.83
65637;DHT22;52327;42.622;23.316;2024-03-23T01:04:19;5.23;55.69
65637;DHT22;52327;42.622;23.316;2024-03-23T01:06:45;5.18;56.81
65637;DHT22;52327;42.622;23.316;2024-03-23T01:09:10;5.18;55.97
65637;DHT22;52327;42.622;23.316;2024-03-23T01:11:36;5.08;57.14
65637;DHT22;52327;42.622;23.316;2024-03-23T01:14:02;4.95;57.77
65637;DHT22;52327;42.622;23.316;2024-03-23T01:16:28;5.04;56.15
65637;DHT22;52327;42.622;23.316;2024-03-23T01:18:53;5.00;56.02
65637;DHT22;52327;42.622;23.316;2024-03-23T01:21:19;5.05;57.59
65637;DHT22;52327;42.622;23.316;2024-03-23T01:23:44;5.16;55.39
65637;DHT22;52327;42.622;23.316;2024-03-23T01:26:10;5.08;55.03
65637;DHT22;52327;42.622;23.316;2024-03-23T01:28:38;5.05;54.37
65637;DHT22;52327;42.622;23.316;2024-03-23T01:31:11;5.05;54.45
65637;DHT22;52327;42.622;23.316;2024-03-23T01:33:37;5.06;54.91
65637;DHT22;52327;42.622;23.316;2024-03-23T01:36:02;4.98;54.76
65637;DHT22;52327;42.622;23.316;2024-03-23T01:38:28;4.92;55.23
65637;DHT22;52327;42.622;23.316;2024-03-23T01:41:00;4.87;56.42
65637;DHT22;52327;42.622;23.316;2024-03-23T01:43:25;4.87;56.62
65637;DHT22;52327;42.622;23.316;2024-03-23T01:45:51;5.02;54.43
65637;DHT22;52327;42.622;23.316;2024-03-23T01:48:19;4.88;55.88
65637;DHT22;52327;42.622;23.316;2024-03-23T01:50:45;4.81;56.09
65637;DHT22;52327;42.622;23.316;2024-03-23T01:53:11;4.75;57.43
65637;DHT22;52327;42.622;23.316;2024-03-23T01:55:37;4.74;56.24
65637;DHT22;52327;42.622;23.316;2024-03-23T01:58:06;4.74;56.43
65637;DHT22;52327;42.622;23.316;2024-03-23T02:00:34;4.71;57.62
65637;DHT22;52327;42.622;23.316;2024-03-23T02:02:59;4.72;57.64
65637;DHT22;52327;42.622;23.316;2024-03-23T02:05:25;4.75;57.88
65637;DHT22;52327;42.622;23.316;2024-03-23T02:07:54;4.82;56.50
65637;DHT22;52327;42.622;23.316;2024-03-23T02:10:19;4.79;57.81
65637;DHT22;52327;42.622;23.316;2024-03-23T02:12:45;4.72;57.77
65637;DHT22;52327;42.622;23.316;2024-03-23T02:15:11;4.74;57.11
65637;DHT22;52327;42.622;23.316;2024-03-23T02:17:36;4.69;57.04
65637;DHT22;52327;42.622;23.316;2024-03-23T02:20:03;4.71;57.19
65637;DHT22;52327;42.622;23.316;2024-03-23T02:22:40;4.69;56.49
65637;DHT22;52327;42.622;23.316;2024-03-23T02:25:06;4.77;56.20
65637;DHT22;52327;42.622;23.316;2024-03-23T02:27:32;4.74;57.40
65637;DHT22;52327;42.622;23.316;2024-03-23T02:29:58;4.68;56.92
65637;DHT22;52327;42.622;23.316;2024-03-23T02:32:23;4.61;56.93
65637;DHT22;52327;42.622;23.316;2024-03-23T02:34:49;4.53;57.69
65637;DHT22;52327;42.622;23.316;2024-03-23T02:37:14;4.54;58.17
65637;DHT22;52327;42.622;23.316;2024-03-23T02:39:40;4.57;58.52
65637;DHT22;52327;42.622;23.316;2024-03-23T02:42:05;4.65;58.06
65637;DHT22;52327;42.622;23.316;2024-03-23T02:44:31;4.62;58.95
65637;DHT22;52327;42.622;23.316;2024-03-23T02:46:56;4.85;55.13
65637;DHT22;52327;42.622;23.316;2024-03-23T02:49:22;4.72;57.36
65637;DHT22;52327;42.622;23.316;2024-03-23T02:51:47;4.67;56.63
65637;DHT22;52327;42.622;23.316;2024-03-23T02:54:18;4.64;56.55
65637;DHT22;52327;42.622;23.316;2024-03-23T02:56:51;4.60;56.85
65637;DHT22;52327;42.622;23.316;2024-03-23T02:59:16;4.56;56.81
65637;DHT22;52327;42.622;23.316;2024-03-23T03:01:44;4.51;57.47
65637;DHT22;52327;42.622;23.316;2024-03-23T03:04:10;4.51;58.29
65637;DHT22;52327;42.622;23.316;2024-03-23T03:06:35;4.51;58.75
65637;DHT22;52327;42.622;23.316;2024-03-23T03:09:01;4.50;58.83
65637;DHT22;52327;42.622;23.316;2024-03-23T03:11:26;4.41;59.41
65637;DHT22;52327;42.622;23.316;2024-03-23T03:13:52;4.38;58.47
65637;DHT22;52327;42.622;23.316;2024-03-23T03:16:17;4.33;58.44
65637;DHT22;52327;42.622;23.316;2024-03-23T03:18:43;4.29;59.13
65637;DHT22;52327;42.622;23.316;2024-03-23T03:21:09;4.26;59.15
65637;DHT22;52327;42.622;23.316;2024-03-23T03:23:39;4.37;57.83
65637;DHT22;52327;42.622;23.316;2024-03-23T03:26:05;4.54;56.79
65637;DHT22;52327;42.622;23.316;2024-03-23T03:28:32;4.47;58.39
65637;DHT22;52327;42.622;23.316;2024-03-23T03:30:59;4.34;58.34
65637;DHT22;52327;42.622;23.316;2024-03-23T03:33:26;4.32;59.00
65637;DHT22;52327;42.622;23.316;2024-03-23T03:35:51;4.24;59.92
65637;DHT22;52327;42.622;23.316;2024-03-23T03:38:18;4.20;61.00
65637;DHT22;52327;42.622;23.316;2024-03-23T03:40:46;4.18;59.89
65637;DHT22;52327;42.622;23.316;2024-03-23T03:43:12;4.16;60.03
65637;DHT22;52327;42.622;23.316;2024-03-23T03:45:37;4.16;60.11
65637;DHT22;52327;42.622;23.316;2024-03-23T03:48:03;4.18;60.51
65637;DHT22;52327;42.622;23.316;2024-03-23T03:50:29;4.20;60.29
65637;DHT22;52327;42.622;23.316;2024-03-23T03:52:54;4.13;60.33
65637;DHT22;52327;42.622;23.316;2024-03-23T03:55:19;4.11;60.47
65637;DHT22;52327;42.622;23.316;2024-03-23T03:57:45;4.11;60.32
65637;DHT22;52327;42.622;23.316;2024-03-23T04:00:11;4.06;60.02
65637;DHT22;52327;42.622;23.316;2024-03-23T04:02:37;4.02;60.21
65637;DHT22;52327;42.622;23.316;2024-03-23T04:05:03;3.97;61.17
65637;DHT22;52327;42.622;23.316;2024-03-23T04:07:31;4.03;61.30
65637;DHT22;52327;42.622;23.316;2024-03-23T04:09:56;4.20;58.99
65637;DHT22;52327;42.622;23.316;2024-03-23T04:12:23;4.17;60.04
65637;DHT22;52327;42.622;23.316;2024-03-23T04:14:49;4.07;61.32
65637;DHT22;52327;42.622;23.316;2024-03-23T04:17:22;4.06;61.68
65637;DHT22;52327;42.622;23.316;2024-03-23T04:19:52;4.02;60.72
65637;DHT22;52327;42.622;23.316;2024-03-23T04:22:26;4.02;59.74
65637;DHT22;52327;42.622;23.316;2024-03-23T04:25:00;4.00;59.20
65637;DHT22;52327;42.622;23.316;2024-03-23T04:27:34;4.10;59.20
65637;DHT22;52327;42.622;23.316;2024-03-23T04:30:00;4.07;60.00
65637;DHT22;52327;42.622;23.316;2024-03-23T04:32:30;4.10;59.54
65637;DHT22;52327;42.622;23.316;2024-03-23T04:34:55;4.07;59.19
65637;DHT22;52327;42.622;23.316;2024-03-23T04:37:24;4.06;60.06
65637;DHT22;52327;42.622;23.316;2024-03-23T04:39:49;4.09;61.22
65637;DHT22;52327;42.622;23.316;2024-03-23T04:42:15;4.06;60.82
65637;DHT22;52327;42.622;23.316;2024-03-23T04:44:41;4.05;61.10
65637;DHT22;52327;42.622;23.316;2024-03-23T04:47:07;4.03;62.43
65637;DHT22;52327;42.622;23.316;2024-03-23T04:49:33;4.07;62.01
65637;DHT22;52327;42.622;23.316;2024-03-23T04:51:58;4.11;62.06
65637;DHT22;52327;42.622;23.316;2024-03-23T04:54:27;4.20;62.51
65637;DHT22;52327;42.622;23.316;2024-03-23T04:56:54;4.29;62.83
65637;DHT22;52327;42.622;23.316;2024-03-23T04:59:20;4.37;62.89
65637;DHT22;52327;42.622;23.316;2024-03-23T05:01:45;4.47;62.29
65637;DHT22;52327;42.622;23.316;2024-03-23T05:04:10;4.54;62.50
65637;DHT22;52327;42.622;23.316;2024-03-23T05:06:38;4.61;62.28
65637;DHT22;52327;42.622;23.316;2024-03-23T05:09:03;4.77;62.29
65637;DHT22;52327;42.622;23.316;2024-03-23T05:11:37;4.91;62.39
65637;DHT22;52327;42.622;23.316;2024-03-23T05:14:03;4.98;62.55
65637;DHT22;52327;42.622;23.316;2024-03-23T05:16:29;5.02;63.01
65637;DHT22;52327;42.622;23.316;2024-03-23T05:18:57;5.09;63.02
65637;DHT22;52327;42.622;23.316;2024-03-23T05:21:26;5.19;63.08
65637;DHT22;52327;42.622;23.316;2024-03-23T05:23:56;5.26;62.97
65637;DHT22;52327;42.622;23.316;2024-03-23T05:26:27;5.32;63.07
65637;DHT22;52327;42.622;23.316;2024-03-23T05:28:53;5.36;62.99
65637;DHT22;52327;42.622;23.316;2024-03-23T05:31:28;5.46;62.71
65637;DHT22;52327;42.622;23.316;2024-03-23T05:33:54;5.49;62.38
65637;DHT22;52327;42.622;23.316;2024-03-23T05:36:20;5.56;63.19
65637;DHT22;52327;42.622;23.316;2024-03-23T05:38:45;5.63;62.77
65637;DHT22;52327;42.622;23.316;2024-03-23T05:41:11;5.69;63.06
65637;DHT22;52327;42.622;23.316;2024-03-23T05:43:37;5.77;62.20
65637;DHT22;52327;42.622;23.316;2024-03-23T05:46:02;5.84;61.99
65637;DHT22;52327;42.622;23.316;2024-03-23T05:48:30;5.88;61.55
65637;DHT22;52327;42.622;23.316;2024-03-23T05:50:56;5.87;61.15
65637;DHT22;52327;42.622;23.316;2024-03-23T05:53:22;5.93;61.79
65637;DHT22;52327;42.622;23.316;2024-03-23T05:55:47;6.02;61.65
65637;DHT22;52327;42.622;23.316;2024-03-23T05:58:15;6.12;62.24
65637;DHT22;52327;42.622;23.316;2024-03-23T06:00:40;6.21;62.29
65637;DHT22;52327;42.622;23.316;2024-03-23T06:03:07;6.28;61.99
65637;DHT22;52327;42.622;23.316;2024-03-23T06:05:32;6.36;61.80
65637;DHT22;52327;42.622;23.316;2024-03-23T06:07:58;6.39;62.08
65637;DHT22;52327;42.622;23.316;2024-03-23T06:10:23;6.46;62.05
65637;DHT22;52327;42.622;23.316;2024-03-23T06:12:49;6.49;62.09
65637;DHT22;52327;42.622;23.316;2024-03-23T06:15:17;6.55;61.81
65637;DHT22;52327;42.622;23.316;2024-03-23T06:17:43;6.56;61.35
65637;DHT22;52327;42.622;23.316;2024-03-23T06:20:09;6.62;61.96
65637;DHT22;52327;42.622;23.316;2024-03-23T06:22:35;6.76;60.38
65637;DHT22;52327;42.622;23.316;2024-03-23T06:25:00;6.66;59.51
65637;DHT22;52327;42.622;23.316;2024-03-23T06:27:26;6.68;60.06
65637;DHT22;52327;42.622;23.316;2024-03-23T06:29:51;6.72;60.13
65637;DHT22;52327;42.622;23.316;2024-03-23T06:32:17;6.83;60.22
65637;DHT22;52327;42.622;23.316;2024-03-23T06:34:43;6.90;60.77
65637;DHT22;52327;42.622;23.316;2024-03-23T06:37:10;6.96;61.39
65637;DHT22;52327;42.622;23.316;2024-03-23T06:39:36;7.01;61.88
65637;DHT22;52327;42.622;23.316;2024-03-23T06:42:02;7.07;62.60
65637;DHT22;52327;42.622;23.316;2024-03-23T06:44:27;7.10;61.57
65637;DHT22;52327;42.622;23.316;2024-03-23T06:46:53;7.04;60.90
65637;DHT22;52327;42.622;23.316;2024-03-23T06:49:18;7.15;61.07
65637;DHT22;52327;42.622;23.316;2024-03-23T06:51:47;7.08;60.73
65637;DHT22;52327;42.622;23.316;2024-03-23T06:54:12;7.15;60.68
65637;DHT22;52327;42.622;23.316;2024-03-23T06:56:38;7.35;58.95
65637;DHT22;52327;42.622;23.316;2024-03-23T06:59:03;7.38;61.53
65637;DHT22;52327;42.622;23.316;2024-03-23T07:01:29;7.35;60.86
65637;DHT22;52327;42.622;23.316;2024-03-23T07:03:54;7.37;59.96
65637;DHT22;52327;42.622;23.316;2024-03-23T07:06:23;7.48;59.65
65637;DHT22;52327;42.622;23.316;2024-03-23T07:08:48;7.48;59.79
65637;DHT22;52327;42.622;23.316;2024-03-23T07:11:20;7.62;59.73
65637;DHT22;52327;42.622;23.316;2024-03-23T07:13:54;7.55;57.96
65637;DHT22;52327;42.622;23.316;2024-03-23T07:16:22;7.69;58.62
65637;DHT22;52327;42.622;23.316;2024-03-23T07:18:50;7.69;58.08
65637;DHT22;52327;42.622;23.316;2024-03-23T07:21:15;7.61;58.04
65637;DHT22;52327;42.622;23.316;2024-03-23T07:23:44;7.76;58.56
65637;DHT22;52327;42.622;23.316;2024-03-23T07:26:10;7.55;57.00
65637;DHT22;52327;42.622;23.316;2024-03-23T07:28:36;7.72;57.97
65637;DHT22;52327;42.622;23.316;2024-03-23T07:31:04;7.85;57.02
65637;DHT22;52327;42.622;23.316;2024-03-23T07:33:30;7.89;58.91
65637;DHT22;52327;42.622;23.316;2024-03-23T07:35:57;8.07;59.38
65637;DHT22;52327;42.622;23.316;2024-03-23T07:38:26;8.12;58.27
65637;DHT22;52327;42.622;23.316;2024-03-23T07:40:52;8.23;57.87
65637;DHT22;52327;42.622;23.316;2024-03-23T07:43:21;8.09;57.25
65637;DHT22;52327;42.622;23.316;2024-03-23T07:45:53;8.25;57.80
65637;DHT22;52327;42.622;23.316;2024-03-23T07:48:21;7.88;56.29
65637;DHT22;52327;42.622;23.316;2024-03-23T07:53:28;7.99;56.67
65637;DHT22;52327;42.622;23.316;2024-03-23T07:56:02;8.07;56.47
65637;DHT22;52327;42.622;23.316;2024-03-23T07:58:28;8.27;55.40
65637;DHT22;52327;42.622;23.316;2024-03-23T08:00:54;8.37;56.28
65637;DHT22;52327;42.622;23.316;2024-03-23T08:03:20;8.46;56.61
65637;DHT22;52327;42.622;23.316;2024-03-23T08:05:45;8.63;56.50
65637;DHT22;52327;42.622;23.316;2024-03-23T08:08:11;8.84;54.69
65637;DHT22;52327;42.622;23.316;2024-03-23T08:10:37;8.60;54.52
65637;DHT22;52327;42.622;23.316;2024-03-23T08:13:11;8.56;55.40
65637;DHT22;52327;42.622;23.316;2024-03-23T08:15:37;8.54;55.44
65637;DHT22;52327;42.622;23.316;2024-03-23T08:18:02;8.79;54.97
65637;DHT22;52327;42.622;23.316;2024-03-23T08:20:28;8.93;54.93
65637;DHT22;52327;42.622;23.316;2024-03-23T08:22:53;9.07;54.89
65637;DHT22;52327;42.622;23.316;2024-03-23T08:25:19;9.09;55.22
65637;DHT22;52327;42.622;23.316;2024-03-23T08:27:44;9.29;55.30
65637;DHT22;52327;42.622;23.316;2024-03-23T08:30:10;9.61;52.76
65637;DHT22;52327;42.622;23.316;2024-03-23T08:32:36;9.69;53.24
65637;DHT22;52327;42.622;23.316;2024-03-23T08:35:02;9.53;52.78
65637;DHT22;52327;42.622;23.316;2024-03-23T08:37:27;9.67;52.97
65637;DHT22;52327;42.622;23.316;2024-03-23T08:39:53;9.84;51.90
65637;DHT22;52327;42.622;23.316;2024-03-23T08:42:18;9.90;53.10
65637;DHT22;52327;42.622;23.316;2024-03-23T08:44:43;9.89;50.91
65637;DHT22;52327;42.622;23.316;2024-03-23T08:47:11;9.79;50.69
65637;DHT22;52327;42.622;23.316;2024-03-23T08:49:37;9.81;50.93
65637;DHT22;52327;42.622;23.316;2024-03-23T08:52:02;9.94;51.45
65637;DHT22;52327;42.622;23.316;2024-03-23T08:54:28;9.77;50.71
65637;DHT22;52327;42.622;23.316;2024-03-23T08:56:54;9.80;51.04
65637;DHT22;52327;42.622;23.316;2024-03-23T08:59:19;9.84;50.93
65637;DHT22;52327;42.622;23.316;2024-03-23T09:01:45;9.93;51.03
65637;DHT22;52327;42.622;23.316;2024-03-23T09:04:11;10.20;50.38
65637;DHT22;52327;42.622;23.316;2024-03-23T09:06:36;10.34;50.82
65637;DHT22;52327;42.622;23.316;2024-03-23T09:09:02;10.42;50.17
65637;DHT22;52327;42.622;23.316;2024-03-23T09:11:27;10.53;48.45
65637;DHT22;52327;42.622;23.316;2024-03-23T09:13:52;10.77;49.03
65637;DHT22;52327;42.622;23.316;2024-03-23T09:16:18;10.89;49.31
65637;DHT22;52327;42.622;23.316;2024-03-23T09:18:43;11.12;47.22
65637;DHT22;52327;42.622;23.316;2024-03-23T09:21:13;11.33;46.85
65637;DHT22;52327;42.622;23.316;2024-03-23T09:23:39;11.40;46.69
65637;DHT22;52327;42.622;23.316;2024-03-23T09:26:05;11.03;46.96
65637;DHT22;52327;42.622;23.316;2024-03-23T09:28:33;11.00;48.23
65637;DHT22;52327;42.622;23.316;2024-03-23T09:31:07;10.86;48.12
65637;DHT22;52327;42.622;23.316;2024-03-23T09:33:34;11.14;47.94
65637;DHT22;52327;42.622;23.316;2024-03-23T09:36:03;11.36;48.08
65637;DHT22;52327;42.622;23.316;2024-03-23T09:38:29;11.44;46.68
65637;DHT22;52327;42.622;23.316;2024-03-23T09:40:54;11.51;45.35
65637;DHT22;52327;42.622;23.316;2024-03-23T09:43:20;11.51;46.14
65637;DHT22;52327;42.622;23.316;2024-03-23T09:45:46;11.63;46.36
65637;DHT22;52327;42.622;23.316;2024-03-23T09:48:12;11.78;46.39
65637;DHT22;52327;42.622;23.316;2024-03-23T09:50:41;11.68;45.15
65637;DHT22;52327;42.622;23.316;2024-03-23T09:53:08;11.23;44.74
65637;DHT22;52327;42.622;23.316;2024-03-23T09:55:34;11.54;44.83
65637;DHT22;52327;42.622;23.316;2024-03-23T09:58:03;11.64;45.58
65637;DHT22;52327;42.622;23.316;2024-03-23T10:00:30;11.73;44.52
65637;DHT22;52327;42.622;23.316;2024-03-23T10:02:56;11.82;44.13
65637;DHT22;52327;42.622;23.316;2024-03-23T10:05:23;11.95;43.83
65637;DHT22;52327;42.622;23.316;2024-03-23T10:07:52;11.98;43.92
65637;DHT22;52327;42.622;23.316;2024-03-23T10:10:17;12.25;44.64
65637;DHT22;52327;42.622;23.316;2024-03-23T10:12:47;12.29;43.54
65637;DHT22;52327;42.622;23.316;2024-03-23T10:15:34;11.95;43.98
65637;DHT22;52327;42.622;23.316;2024-03-23T10:18:17;12.12;44.12
65637;DHT22;52327;42.622;23.316;2024-03-23T10:20:43;12.19;44.35
65637;DHT22;52327;42.622;23.316;2024-03-23T10:23:18;12.43;44.47
65637;DHT22;52327;42.622;23.316;2024-03-23T10:25:43;12.72;43.75
65637;DHT22;52327;42.622;23.316;2024-03-23T10:28:09;12.77;43.85
65637;DHT22;52327;42.622;23.316;2024-03-23T10:30:36;12.81;43.41
65637;DHT22;52327;42.622;23.316;2024-03-23T10:33:08;12.50;43.20
65637;DHT22;52327;42.622;23.316;2024-03-23T10:35:34;12.79;43.43
65637;DHT22;52327;42.622;23.316;2024-03-23T10:38:27;12.57;42.90
65637;DHT22;52327;42.622;23.316;2024-03-23T10:40:55;12.61;41.78
65637;DHT22;52327;42.622;23.316;2024-03-23T10:43:22;12.76;42.78
65637;DHT22;52327;42.622;23.316;2024-03-23T10:45:49;13.06;43.93
65637;DHT22;52327;42.622;23.316;2024-03-23T10:48:15;13.19;42.13
65637;DHT22;52327;42.622;23.316;2024-03-23T10:50:42;13.06;40.58
65637;DHT22;52327;42.622;23.316;2024-03-23T10:53:10;12.72;41.27
65637;DHT22;52327;42.622;23.316;2024-03-23T10:55:38;13.01;42.17
65637;DHT22;52327;42.622;23.316;2024-03-23T10:58:04;13.15;40.63
65637;DHT22;52327;42.622;23.316;2024-03-23T11:00:29;13.35;40.56
65637;DHT22;52327;42.622;23.316;2024-03-23T11:03:29;12.98;39.56
65637;DHT22;52327;42.622;23.316;2024-03-23T11:05:46;13.38;39.04
65637;DHT22;52327;42.622;23.316;2024-03-23T11:08:29;13.49;39.98
65637;DHT22;52327;42.622;23.316;2024-03-23T11:11:17;13.48;39.38
65637;DHT22;52327;42.622;23.316;2024-03-23T11:13:49;13.63;39.11
65637;DHT22;52327;42.622;23.316;2024-03-23T11:16:26;13.80;38.94
65637;DHT22;52327;42.622;23.316;2024-03-23T11:22:03;14.33;38.62
65637;DHT22;52327;42.622;23.316;2024-03-23T11:24:33;14.52;38.76
65637;DHT22;52327;42.622;23.316;2024-03-23T11:27:02;14.51;37.88
65637;DHT22;52327;42.622;23.316;2024-03-23T11:29:46;14.84;36.69
65637;DHT22;52327;42.622;23.316;2024-03-23T11:32:14;14.92;37.71
65637;DHT22;52327;42.622;23.316;2024-03-23T11:34:40;14.77;37.01
65637;DHT22;52327;42.622;23.316;2024-03-23T11:37:05;14.74;37.51
65637;DHT22;52327;42.622;23.316;2024-03-23T11:39:32;14.65;38.04
65637;DHT22;52327;42.622;23.316;2024-03-23T11:41:57;14.57;37.79
65637;DHT22;52327;42.622;23.316;2024-03-23T11:44:25;14.71;37.31
65637;DHT22;52327;42.622;23.316;2024-03-23T11:46:51;14.57;37.22
65637;DHT22;52327;42.622;23.316;2024-03-23T11:49:26;14.89;37.23
65637;DHT22;52327;42.622;23.316;2024-03-23T11:51:52;14.95;36.35
65637;DHT22;52327;42.622;23.316;2024-03-23T11:54:22;15.15;36.95
65637;DHT22;52327;42.622;23.316;2024-03-23T11:57:00;15.53;36.16
65637;DHT22;52327;42.622;23.316;2024-03-23T11:59:47;15.49;35.71
65637;DHT22;52327;42.622;23.316;2024-03-23T12:02:13;15.21;35.29
65637;DHT22;52327;42.622;23.316;2024-03-23T12:04:40;15.46;36.00
65637;DHT22;52327;42.622;23.316;2024-03-23T12:07:17;15.35;35.09
65637;DHT22;52327;42.622;23.316;2024-03-23T12:10:08;15.26;35.21
65637;DHT22;52327;42.622;23.316;2024-03-23T12:12:34;15.74;35.54
65637;DHT22;52327;42.622;23.316;2024-03-23T12:15:05;16.07;34.44
65637;DHT22;52327;42.622;23.316;2024-03-23T12:17:31;16.17;34.16
65637;DHT22;52327;42.622;23.316;2024-03-23T12:19:57;16.31;33.95
65637;DHT22;52327;42.622;23.316;2024-03-23T12:22:23;16.15;33.28
65637;DHT22;52327;42.622;23.316;2024-03-23T12:24:49;16.32;33.43
65637;DHT22;52327;42.622;23.316;2024-03-23T12:27:15;17.00;33.78
65637;DHT22;52327;42.622;23.316;2024-03-23T12:29:41;16.96;31.19
65637;DHT22;52327;42.622;23.316;2024-03-23T12:32:13;16.56;32.00
65637;DHT22;52327;42.622;23.316;2024-03-23T12:34:42;16.10;31.22
65637;DHT22;52327;42.622;23.316;2024-03-23T12:37:07;16.47;31.66
65637;DHT22;52327;42.622;23.316;2024-03-23T12:39:35;17.07;30.18
65637;DHT22;52327;42.622;23.316;2024-03-23T12:42:02;17.70;29.22
65637;DHT22;52327;42.622;23.316;2024-03-23T12:44:28;17.98;29.75
65637;DHT22;52327;42.622;23.316;2024-03-23T12:46:54;18.93;28.99
65637;DHT22;52327;42.622;23.316;2024-03-23T12:49:19;20.05;29.15
65637;DHT22;52327;42.622;23.316;2024-03-23T12:51:54;21.72;27.80
65637;DHT22;52327;42.622;23.316;2024-03-23T12:54:20;22.73;25.12
65637;DHT22;52327;42.622;23.316;2024-03-23T12:56:46;23.37;23.14
65637;DHT22;52327;42.622;23.316;2024-03-23T12:59:11;23.82;23.41
65637;DHT22;52327;42.622;23.316;2024-03-23T13:01:41;24.65;21.39
65637;DHT22;52327;42.622;23.316;2024-03-23T13:04:06;25.50;22.43
65637;DHT22;52327;42.622;23.316;2024-03-23T13:06:32;26.73;20.71
65637;DHT22;52327;42.622;23.316;2024-03-23T13:09:00;27.67;21.55
65637;DHT22;52327;42.622;23.316;2024-03-23T13:11:26;28.33;19.09
65637;DHT22;52327;42.622;23.316;2024-03-23T13:13:52;27.48;16.58
65637;DHT22;52327;42.622;23.316;2024-03-23T13:16:17;27.42;16.26
65637;DHT22;52327;42.622;23.316;2024-03-23T13:18:43;27.49;16.82
65637;DHT22;52327;42.622;23.316;2024-03-23T13:21:08;27.97;15.76
65637;DHT22;52327;42.622;23.316;2024-03-23T13:23:34;28.46;16.44
65637;DHT22;52327;42.622;23.316;2024-03-23T13:26:01;28.60;15.59
65637;DHT22;52327;42.622;23.316;2024-03-23T13:28:26;28.92;16.87
65637;DHT22;52327;42.622;23.316;2024-03-23T13:30:53;28.37;18.75
65637;DHT22;52327;42.622;23.316;2024-03-23T13:33:22;27.55;18.00
65637;DHT22;52327;42.622;23.316;2024-03-23T13:35:54;27.18;17.58
65637;DHT22;52327;42.622;23.316;2024-03-23T13:38:21;26.67;18.21
65637;DHT22;52327;42.622;23.316;2024-03-23T13:40:57;26.29;19.58
65637;DHT22;52327;42.622;23.316;2024-03-23T13:43:23;25.78;18.30
65637;DHT22;52327;42.622;23.316;2024-03-23T13:45:53;25.35;18.99
65637;DHT22;52327;42.622;23.316;2024-03-23T13:48:24;25.14;19.89
65637;DHT22;52327;42.622;23.316;2024-03-23T13:53:24;24.56;18.82
65637;DHT22;52327;42.622;23.316;2024-03-23T13:55:50;23.97;20.72
65637;DHT22;52327;42.622;23.316;2024-03-23T13:58:15;24.02;20.31
65637;DHT22;52327;42.622;23.316;2024-03-23T14:00:41;23.93;20.48
65637;DHT22;52327;42.622;23.316;2024-03-23T14:03:10;23.66;19.36
65637;DHT22;52327;42.622;23.316;2024-03-23T14:05:37;23.56;20.23
65637;DHT22;52327;42.622;23.316;2024-03-23T14:08:09;22.99;20.44
65637;DHT22;52327;42.622;23.316;2024-03-23T14:10:35;22.76;20.37
65637;DHT22;52327;42.622;23.316;2024-03-23T14:13:03;22.62;21.76
65637;DHT22;52327;42.622;23.316;2024-03-23T14:15:29;22.34;20.50
65637;DHT22;52327;42.622;23.316;2024-03-23T14:17:58;22.73;20.40
65637;DHT22;52327;42.622;23.316;2024-03-23T14:20:24;22.75;21.08
65637;DHT22;52327;42.622;23.316;2024-03-23T14:22:50;22.58;20.89
65637;DHT22;52327;42.622;23.316;2024-03-23T14:25:18;22.76;21.53
65637;DHT22;52327;42.622;23.316;2024-03-23T14:27:45;22.95;20.89
65637;DHT22;52327;42.622;23.316;2024-03-23T14:30:11;22.88;21.13
65637;DHT22;52327;42.622;23.316;2024-03-23T14:32:44;22.96;20.30
65637;DHT22;52327;42.622;23.316;2024-03-23T14:35:10;22.89;20.28
65637;DHT22;52327;42.622;23.316;2024-03-23T14:37:39;22.48;20.05
65637;DHT22;52327;42.622;23.316;2024-03-23T14:40:07;22.58;20.42
65637;DHT22;52327;42.622;23.316;2024-03-23T14:42:33;22.69;20.83
65637;DHT22;52327;42.622;23.316;2024-03-23T14:44:58;22.51;20.08
65637;DHT22;52327;42.622;23.316;2024-03-23T14:47:24;22.30;21.39
65637;DHT22;52327;42.622;23.316;2024-03-23T14:49:55;21.93;21.92
65637;DHT22;52327;42.622;23.316;2024-03-23T14:52:23;21.86;22.01
65637;DHT22;52327;42.622;23.316;2024-03-23T14:54:49;21.65;22.26
65637;DHT22;52327;42.622;23.316;2024-03-23T14:57:14;21.72;22.52
65637;DHT22;52327;42.622;23.316;2024-03-23T14:59:40;21.76;21.89
65637;DHT22;52327;42.622;23.316;2024-03-23T15:02:09;21.50;22.12
65637;DHT22;52327;42.622;23.316;2024-03-23T15:04:35;21.15;24.43
65637;DHT22;52327;42.622;23.316;2024-03-23T15:07:01;20.96;24.52
65637;DHT22;52327;42.622;23.316;2024-03-23T15:09:28;20.88;25.09
65637;DHT22;52327;42.622;23.316;2024-03-23T15:11:54;20.77;25.80
65637;DHT22;52327;42.622;23.316;2024-03-23T15:14:21;20.45;26.08
65637;DHT22;52327;42.622;23.316;2024-03-23T15:16:46;20.24;27.89
65637;DHT22;52327;42.622;23.316;2024-03-23T15:19:14;20.19;27.19
65637;DHT22;52327;42.622;23.316;2024-03-23T15:21:39;20.05;27.18
65637;DHT22;52327;42.622;23.316;2024-03-23T15:24:05;19.85;27.35
65637;DHT22;52327;42.622;23.316;2024-03-23T15:26:31;19.38;27.69
65637;DHT22;52327;42.622;23.316;2024-03-23T15:28:57;18.76;29.65
65637;DHT22;52327;42.622;23.316;2024-03-23T15:31:23;18.40;31.27
65637;DHT22;52327;42.622;23.316;2024-03-23T15:33:49;18.15;30.87
65637;DHT22;52327;42.622;23.316;2024-03-23T15:36:15;17.98;30.77
65637;DHT22;52327;42.622;23.316;2024-03-23T15:38:41;17.73;30.79
65637;DHT22;52327;42.622;23.316;2024-03-23T15:41:08;17.44;31.13
65637;DHT22;52327;42.622;23.316;2024-03-23T15:43:36;17.13;31.20
65637;DHT22;52327;42.622;23.316;2024-03-23T15:46:05;16.89;33.51
65637;DHT22;52327;42.622;23.316;2024-03-23T15:48:35;16.72;33.28
65637;DHT22;52327;42.622;23.316;2024-03-23T15:51:03;16.61;33.18
65637;DHT22;52327;42.622;23.316;2024-03-23T15:53:29;16.41;34.07
65637;DHT22;52327;42.622;23.316;2024-03-23T15:56:00;16.31;33.39
65637;DHT22;52327;42.622;23.316;2024-03-23T15:58:27;16.08;34.88
65637;DHT22;52327;42.622;23.316;2024-03-23T16:00:59;15.87;34.89
65637;DHT22;52327;42.622;23.316;2024-03-23T16:03:25;15.76;36.12
65637;DHT22;52327;42.622;23.316;2024-03-23T16:05:53;15.63;36.25
65637;DHT22;52327;42.622;23.316;2024-03-23T16:08:19;15.57;35.78
65637;DHT22;52327;42.622;23.316;2024-03-23T16:10:45;15.47;36.30
65637;DHT22;52327;42.622;23.316;2024-03-23T16:13:10;15.47;33.59
65637;DHT22;52327;42.622;23.316;2024-03-23T16:15:36;15.29;34.34
65637;DHT22;52327;42.622;23.316;2024-03-23T16:18:01;15.36;33.01
65637;DHT22;52327;42.622;23.316;2024-03-23T16:20:27;15.31;33.97
65637;DHT22;52327;42.622;23.316;2024-03-23T16:22:55;15.26;34.27
65637;DHT22;52327;42.622;23.316;2024-03-23T16:25:20;15.21;33.48
65637;DHT22;52327;42.622;23.316;2024-03-23T16:27:46;14.91;33.83